Culver, Minnesota
Current Conditions -  °F | °C
As of 10:55 AM on Thursday 23 Oct 2014 (Local Time) from KDLH Reporting Station
Moderate Fog Moderate Fog  
Wind Chill: 45°   Ceiling: 200
Heat Index: 49°   Visibility: 0.5mi
Dew Point: 47°   Wind: 9mph
Humidity: 93%   Direction: 230°SW
Pressure: 29.96"   Gusts: NA
Location:  46.8859°N, 92.4258°W
Report Text: KDLH 231555Z 23008KT 1/2SM R09/2800V5000FT FG OVC002 09/08 A2996 RMK AO2 SLP153 VIS N 3/4 T00940083
Loading
Personal Weather Stations






























Interactive Weather Map
Tropical Storm Tracking
New forecast layout! Learn more

10-Day Weather Forecast

Advertisements
Track Severe Weather on mobile